sensor_id;sensor_type;location;lat;lon;timestamp;pressure;altitude;pressure_sealevel;temperature;humidity
30554;BME280;17335;50.720;7.452;2022-08-19T00:01:58;99055.88;;;16.34;100.00
30554;BME280;17335;50.720;7.452;2022-08-19T00:04:29;99059.03;;;16.23;100.00
30554;BME280;17335;50.720;7.452;2022-08-19T00:06:58;99055.13;;;16.10;100.00
30554;BME280;17335;50.720;7.452;2022-08-19T00:09:26;99060.28;;;16.05;100.00
30554;BME280;17335;50.720;7.452;2022-08-19T00:11:54;99067.56;;;16.05;100.00
30554;BME280;17335;50.720;7.452;2022-08-19T00:14:23;99060.09;;;16.07;100.00
30554;BME280;17335;50.720;7.452;2022-08-19T00:16:51;99068.94;;;16.16;100.00
30554;BME280;17335;50.720;7.452;2022-08-19T00:19:22;99070.28;;;16.20;100.00
30554;BME280;17335;50.720;7.452;2022-08-19T00:21:49;99073.06;;;16.26;100.00
30554;BME280;17335;50.720;7.452;2022-08-19T00:24:16;99075.00;;;16.33;100.00
30554;BME280;17335;50.720;7.452;2022-08-19T00:26:44;99070.41;;;16.33;100.00
30554;BME280;17335;50.720;7.452;2022-08-19T00:29:13;99069.88;;;16.38;100.00
30554;BME280;17335;50.720;7.452;2022-08-19T00:31:41;99061.56;;;16.39;100.00
30554;BME280;17335;50.720;7.452;2022-08-19T00:34:09;99068.84;;;16.39;100.00
30554;BME280;17335;50.720;7.452;2022-08-19T00:36:36;99065.00;;;16.33;100.00
30554;BME280;17335;50.720;7.452;2022-08-19T00:39:04;99079.59;;;16.32;100.00
30554;BME280;17335;50.720;7.452;2022-08-19T00:41:31;99076.25;;;16.30;100.00
30554;BME280;17335;50.720;7.452;2022-08-19T00:44:09;99073.91;;;16.27;100.00
30554;BME280;17335;50.720;7.452;2022-08-19T00:46:38;99069.69;;;16.24;100.00
30554;BME280;17335;50.720;7.452;2022-08-19T00:51:46;99070.38;;;16.11;100.00
30554;BME280;17335;50.720;7.452;2022-08-19T00:54:14;99065.59;;;16.13;100.00
30554;BME280;17335;50.720;7.452;2022-08-19T00:56:41;99072.69;;;16.15;100.00
30554;BME280;17335;50.720;7.452;2022-08-19T00:59:08;99062.88;;;16.13;100.00
30554;BME280;17335;50.720;7.452;2022-08-19T01:01:40;99060.19;;;16.13;100.00
30554;BME280;17335;50.720;7.452;2022-08-19T01:04:10;99056.00;;;16.11;100.00
30554;BME280;17335;50.720;7.452;2022-08-19T01:06:38;99051.78;;;16.08;100.00
30554;BME280;17335;50.720;7.452;2022-08-19T01:09:07;99046.72;;;16.05;100.00
30554;BME280;17335;50.720;7.452;2022-08-19T01:11:40;99047.78;;;16.04;100.00
30554;BME280;17335;50.720;7.452;2022-08-19T01:14:08;99043.38;;;16.03;100.00
30554;BME280;17335;50.720;7.452;2022-08-19T01:16:37;99044.22;;;16.04;100.00
30554;BME280;17335;50.720;7.452;2022-08-19T01:19:18;99036.75;;;16.06;100.00
30554;BME280;17335;50.720;7.452;2022-08-19T01:22:06;99048.69;;;16.11;100.00
30554;BME280;17335;50.720;7.452;2022-08-19T01:24:42;99049.06;;;16.08;100.00
30554;BME280;17335;50.720;7.452;2022-08-19T01:27:16;99049.16;;;16.00;100.00
30554;BME280;17335;50.720;7.452;2022-08-19T01:29:44;99053.66;;;15.93;100.00
30554;BME280;17335;50.720;7.452;2022-08-19T01:32:14;99055.34;;;15.94;100.00
30554;BME280;17335;50.720;7.452;2022-08-19T01:34:58;99057.00;;;15.95;100.00
30554;BME280;17335;50.720;7.452;2022-08-19T01:37:28;99060.09;;;15.92;100.00
30554;BME280;17335;50.720;7.452;2022-08-19T01:39:55;99058.41;;;15.91;100.00
30554;BME280;17335;50.720;7.452;2022-08-19T01:42:22;99048.31;;;15.85;100.00
30554;BME280;17335;50.720;7.452;2022-08-19T01:44:56;99047.31;;;15.86;100.00
30554;BME280;17335;50.720;7.452;2022-08-19T01:47:23;99051.50;;;15.88;100.00
30554;BME280;17335;50.720;7.452;2022-08-19T01:49:50;99050.28;;;15.91;100.00
30554;BME280;17335;50.720;7.452;2022-08-19T01:52:16;99047.88;;;15.96;100.00
30554;BME280;17335;50.720;7.452;2022-08-19T01:54:43;99057.88;;;15.96;100.00
30554;BME280;17335;50.720;7.452;2022-08-19T01:57:12;99057.88;;;15.96;100.00
30554;BME280;17335;50.720;7.452;2022-08-19T01:59:41;99044.88;;;15.91;100.00
30554;BME280;17335;50.720;7.452;2022-08-19T02:02:10;99042.34;;;15.89;100.00
30554;BME280;17335;50.720;7.452;2022-08-19T02:04:38;99045.88;;;15.90;100.00
30554;BME280;17335;50.720;7.452;2022-08-19T02:07:05;99050.28;;;15.91;100.00
30554;BME280;17335;50.720;7.452;2022-08-19T02:09:32;99054.88;;;15.90;100.00
30554;BME280;17335;50.720;7.452;2022-08-19T02:11:59;99053.09;;;15.83;100.00
30554;BME280;17335;50.720;7.452;2022-08-19T02:14:26;99055.97;;;15.81;100.00
30554;BME280;17335;50.720;7.452;2022-08-19T02:16:52;99054.31;;;15.80;100.00
30554;BME280;17335;50.720;7.452;2022-08-19T02:19:19;99055.13;;;15.81;100.00
30554;BME280;17335;50.720;7.452;2022-08-19T02:21:45;99049.97;;;15.71;100.00
30554;BME280;17335;50.720;7.452;2022-08-19T02:24:12;99042.59;;;15.65;100.00
30554;BME280;17335;50.720;7.452;2022-08-19T02:26:38;99052.09;;;15.61;100.00
30554;BME280;17335;50.720;7.452;2022-08-19T02:29:05;99044.84;;;15.61;100.00
30554;BME280;17335;50.720;7.452;2022-08-19T02:31:32;99052.78;;;15.63;100.00
30554;BME280;17335;50.720;7.452;2022-08-19T02:33:59;99054.25;;;15.65;100.00
30554;BME280;17335;50.720;7.452;2022-08-19T02:36:27;99051.44;;;15.59;100.00
30554;BME280;17335;50.720;7.452;2022-08-19T02:38:55;99049.78;;;15.57;100.00
30554;BME280;17335;50.720;7.452;2022-08-19T02:41:25;99054.50;;;15.55;100.00
30554;BME280;17335;50.720;7.452;2022-08-19T02:43:56;99047.25;;;15.56;100.00
30554;BME280;17335;50.720;7.452;2022-08-19T02:46:46;99055.84;;;15.60;100.00
30554;BME280;17335;50.720;7.452;2022-08-19T02:49:13;99058.38;;;15.61;100.00
30554;BME280;17335;50.720;7.452;2022-08-19T02:51:44;99066.47;;;15.61;100.00
30554;BME280;17335;50.720;7.452;2022-08-19T02:54:12;99061.44;;;15.58;100.00
30554;BME280;17335;50.720;7.452;2022-08-19T02:56:41;99056.19;;;15.56;100.00
30554;BME280;17335;50.720;7.452;2022-08-19T02:59:08;99051.81;;;15.55;100.00
30554;BME280;17335;50.720;7.452;2022-08-19T03:01:37;99057.41;;;15.54;100.00
30554;BME280;17335;50.720;7.452;2022-08-19T03:04:08;99059.63;;;15.50;100.00
30554;BME280;17335;50.720;7.452;2022-08-19T03:06:41;99063.19;;;15.51;100.00
30554;BME280;17335;50.720;7.452;2022-08-19T03:09:09;99065.03;;;15.50;100.00
30554;BME280;17335;50.720;7.452;2022-08-19T03:11:36;99066.09;;;15.49;100.00
30554;BME280;17335;50.720;7.452;2022-08-19T03:14:04;99061.22;;;15.45;100.00
30554;BME280;17335;50.720;7.452;2022-08-19T03:16:34;99059.53;;;15.44;100.00
30554;BME280;17335;50.720;7.452;2022-08-19T03:19:01;99062.78;;;15.39;100.00
30554;BME280;17335;50.720;7.452;2022-08-19T03:21:32;99059.22;;;15.38;100.00
30554;BME280;17335;50.720;7.452;2022-08-19T03:24:04;99065.69;;;15.37;100.00
30554;BME280;17335;50.720;7.452;2022-08-19T03:26:31;99071.91;;;15.38;100.00
30554;BME280;17335;50.720;7.452;2022-08-19T03:29:02;99070.25;;;15.37;100.00
30554;BME280;17335;50.720;7.452;2022-08-19T03:31:31;99075.84;;;15.35;100.00
30554;BME280;17335;50.720;7.452;2022-08-19T03:34:16;99069.28;;;15.30;100.00
30554;BME280;17335;50.720;7.452;2022-08-19T03:36:44;99071.31;;;15.28;100.00
30554;BME280;17335;50.720;7.452;2022-08-19T03:39:12;99080.66;;;15.25;100.00
30554;BME280;17335;50.720;7.452;2022-08-19T03:41:41;99073.56;;;15.24;100.00
30554;BME280;17335;50.720;7.452;2022-08-19T03:44:12;99072.56;;;15.25;100.00
30554;BME280;17335;50.720;7.452;2022-08-19T03:46:45;99077.47;;;15.22;100.00
30554;BME280;17335;50.720;7.452;2022-08-19T03:49:11;99072.44;;;15.18;100.00
30554;BME280;17335;50.720;7.452;2022-08-19T03:51:41;99078.19;;;15.15;100.00
30554;BME280;17335;50.720;7.452;2022-08-19T03:54:12;99079.41;;;15.13;100.00
30554;BME280;17335;50.720;7.452;2022-08-19T03:56:41;99081.44;;;15.11;100.00
30554;BME280;17335;50.720;7.452;2022-08-19T03:59:12;99080.78;;;15.09;100.00
30554;BME280;17335;50.720;7.452;2022-08-19T04:01:39;99083.66;;;15.07;100.00
30554;BME280;17335;50.720;7.452;2022-08-19T04:04:06;99083.84;;;15.06;100.00
30554;BME280;17335;50.720;7.452;2022-08-19T04:06:36;99086.72;;;15.04;100.00
30554;BME280;17335;50.720;7.452;2022-08-19T04:09:07;99095.03;;;15.03;100.00
30554;BME280;17335;50.720;7.452;2022-08-19T04:11:38;99092.03;;;14.97;100.00
30554;BME280;17335;50.720;7.452;2022-08-19T04:14:16;99099.44;;;14.95;100.00
30554;BME280;17335;50.720;7.452;2022-08-19T04:16:45;99102.88;;;14.89;100.00
30554;BME280;17335;50.720;7.452;2022-08-19T04:19:13;99095.00;;;14.79;100.00
30554;BME280;17335;50.720;7.452;2022-08-19T04:21:44;99103.09;;;14.79;100.00
30554;BME280;17335;50.720;7.452;2022-08-19T04:24:14;99107.66;;;14.79;100.00
30554;BME280;17335;50.720;7.452;2022-08-19T04:26:41;99115.44;;;14.82;100.00
30554;BME280;17335;50.720;7.452;2022-08-19T04:29:12;99110.38;;;14.79;100.00
30554;BME280;17335;50.720;7.452;2022-08-19T04:31:40;99101.63;;;14.77;100.00
30554;BME280;17335;50.720;7.452;2022-08-19T04:34:10;99100.09;;;14.74;100.00
30554;BME280;17335;50.720;7.452;2022-08-19T04:36:39;99103.63;;;14.75;100.00
30554;BME280;17335;50.720;7.452;2022-08-19T04:39:12;99105.66;;;14.73;100.00
30554;BME280;17335;50.720;7.452;2022-08-19T04:41:40;99114.81;;;14.72;100.00
30554;BME280;17335;50.720;7.452;2022-08-19T04:44:26;99113.78;;;14.73;100.00
30554;BME280;17335;50.720;7.452;2022-08-19T04:46:52;99114.09;;;14.78;100.00
30554;BME280;17335;50.720;7.452;2022-08-19T04:49:21;99120.84;;;14.82;100.00
30554;BME280;17335;50.720;7.452;2022-08-19T04:51:50;99118.44;;;14.87;100.00
30554;BME280;17335;50.720;7.452;2022-08-19T04:54:18;99121.44;;;14.92;100.00
30554;BME280;17335;50.720;7.452;2022-08-19T04:57:06;99128.16;;;14.96;100.00
30554;BME280;17335;50.720;7.452;2022-08-19T04:59:35;99131.19;;;15.02;100.00
30554;BME280;17335;50.720;7.452;2022-08-19T05:02:04;99132.50;;;15.06;100.00
30554;BME280;17335;50.720;7.452;2022-08-19T05:04:32;99140.72;;;15.12;100.00
30554;BME280;17335;50.720;7.452;2022-08-19T05:07:00;99137.16;;;15.20;100.00
30554;BME280;17335;50.720;7.452;2022-08-19T05:09:28;99139.59;;;15.30;100.00
30554;BME280;17335;50.720;7.452;2022-08-19T05:12:16;99142.06;;;15.40;100.00
30554;BME280;17335;50.720;7.452;2022-08-19T05:14:43;99139.66;;;15.45;100.00
30554;BME280;17335;50.720;7.452;2022-08-19T05:17:12;99136.59;;;15.48;100.00
30554;BME280;17335;50.720;7.452;2022-08-19T05:19:59;99137.72;;;15.53;100.00
30554;BME280;17335;50.720;7.452;2022-08-19T05:22:46;99141.38;;;15.61;100.00
30554;BME280;17335;50.720;7.452;2022-08-19T05:25:17;99144.84;;;15.69;100.00
30554;BME280;17335;50.720;7.452;2022-08-19T05:27:46;99143.00;;;16.08;100.00
30554;BME280;17335;50.720;7.452;2022-08-19T05:30:14;99132.34;;;16.66;100.00
30554;BME280;17335;50.720;7.452;2022-08-19T05:32:41;99112.16;;;17.05;100.00
30554;BME280;17335;50.720;7.452;2022-08-19T05:35:08;99112.94;;;17.42;100.00
30554;BME280;17335;50.720;7.452;2022-08-19T05:37:35;99104.63;;;17.43;100.00
30554;BME280;17335;50.720;7.452;2022-08-19T05:40:03;99112.31;;;17.40;100.00
30554;BME280;17335;50.720;7.452;2022-08-19T05:42:30;99125.97;;;17.53;100.00
30554;BME280;17335;50.720;7.452;2022-08-19T05:44:58;99125.47;;;17.65;100.00
30554;BME280;17335;50.720;7.452;2022-08-19T05:47:24;99122.66;;;17.79;100.00
30554;BME280;17335;50.720;7.452;2022-08-19T05:49:51;99122.19;;;17.97;100.00
30554;BME280;17335;50.720;7.452;2022-08-19T05:52:19;99118.22;;;18.28;100.00
30554;BME280;17335;50.720;7.452;2022-08-19T05:54:52;99110.16;;;18.48;100.00
30554;BME280;17335;50.720;7.452;2022-08-19T05:57:22;99112.94;;;18.62;100.00
30554;BME280;17335;50.720;7.452;2022-08-19T05:59:49;99110.25;;;18.68;100.00
30554;BME280;17335;50.720;7.452;2022-08-19T06:02:29;99112.94;;;18.62;100.00
30554;BME280;17335;50.720;7.452;2022-08-19T06:04:57;99110.66;;;18.65;100.00
30554;BME280;17335;50.720;7.452;2022-08-19T06:07:23;99114.88;;;18.74;100.00
30554;BME280;17335;50.720;7.452;2022-08-19T06:09:50;99115.50;;;18.77;100.00
30554;BME280;17335;50.720;7.452;2022-08-19T06:12:29;99120.31;;;18.74;100.00
30554;BME280;17335;50.720;7.452;2022-08-19T06:15:00;99113.41;;;18.79;100.00
30554;BME280;17335;50.720;7.452;2022-08-19T06:17:28;99115.16;;;18.86;100.00
30554;BME280;17335;50.720;7.452;2022-08-19T06:19:57;99110.16;;;18.90;100.00
30554;BME280;17335;50.720;7.452;2022-08-19T06:22:24;99110.00;;;19.05;100.00
30554;BME280;17335;50.720;7.452;2022-08-19T06:24:53;99103.50;;;19.13;100.00
30554;BME280;17335;50.720;7.452;2022-08-19T06:27:21;99100.16;;;19.30;100.00
30554;BME280;17335;50.720;7.452;2022-08-19T06:29:48;99100.19;;;19.37;100.00
30554;BME280;17335;50.720;7.452;2022-08-19T06:32:16;99099.78;;;19.47;100.00
30554;BME280;17335;50.720;7.452;2022-08-19T06:34:44;99096.44;;;19.52;100.00
30554;BME280;17335;50.720;7.452;2022-08-19T06:37:11;99103.53;;;19.53;100.00
30554;BME280;17335;50.720;7.452;2022-08-19T06:39:43;99112.34;;;19.61;100.00
30554;BME280;17335;50.720;7.452;2022-08-19T06:42:11;99114.03;;;19.62;100.00
30554;BME280;17335;50.720;7.452;2022-08-19T06:44:45;99104.81;;;19.70;100.00
30554;BME280;17335;50.720;7.452;2022-08-19T06:47:19;99116.13;;;19.60;100.00
30554;BME280;17335;50.720;7.452;2022-08-19T06:49:53;99120.75;;;19.60;100.00
30554;BME280;17335;50.720;7.452;2022-08-19T06:52:26;99124.50;;;19.52;100.00
30554;BME280;17335;50.720;7.452;2022-08-19T06:54:54;99122.59;;;19.53;100.00
30554;BME280;17335;50.720;7.452;2022-08-19T06:57:25;99132.44;;;19.54;100.00
30554;BME280;17335;50.720;7.452;2022-08-19T06:59:52;99130.53;;;19.41;100.00
30554;BME280;17335;50.720;7.452;2022-08-19T07:02:20;99134.13;;;19.48;100.00
30554;BME280;17335;50.720;7.452;2022-08-19T07:04:47;99134.56;;;19.52;100.00
30554;BME280;17335;50.720;7.452;2022-08-19T07:07:19;99142.72;;;19.52;100.00
30554;BME280;17335;50.720;7.452;2022-08-19T07:09:48;99147.31;;;19.44;100.00
30554;BME280;17335;50.720;7.452;2022-08-19T07:12:25;99142.94;;;19.57;100.00
30554;BME280;17335;50.720;7.452;2022-08-19T07:14:55;99144.59;;;19.64;100.00
30554;BME280;17335;50.720;7.452;2022-08-19T07:17:23;99147.53;;;19.63;100.00
30554;BME280;17335;50.720;7.452;2022-08-19T07:19:50;99155.50;;;19.71;100.00
30554;BME280;17335;50.720;7.452;2022-08-19T07:22:20;99154.28;;;19.80;100.00
30554;BME280;17335;50.720;7.452;2022-08-19T07:24:50;99156.56;;;19.83;100.00
30554;BME280;17335;50.720;7.452;2022-08-19T07:27:18;99157.19;;;19.85;100.00
30554;BME280;17335;50.720;7.452;2022-08-19T07:29:51;99164.34;;;19.93;100.00
30554;BME280;17335;50.720;7.452;2022-08-19T07:32:22;99164.97;;;20.02;100.00
30554;BME280;17335;50.720;7.452;2022-08-19T07:34:48;99163.47;;;20.13;100.00
30554;BME280;17335;50.720;7.452;2022-08-19T07:37:15;99154.88;;;20.22;100.00
30554;BME280;17335;50.720;7.452;2022-08-19T07:39:42;99162.63;;;20.39;100.00
30554;BME280;17335;50.720;7.452;2022-08-19T07:42:10;99164.91;;;20.35;100.00
30554;BME280;17335;50.720;7.452;2022-08-19T07:44:39;99160.91;;;20.51;100.00
30554;BME280;17335;50.720;7.452;2022-08-19T07:47:11;99154.56;;;20.57;100.00
30554;BME280;17335;50.720;7.452;2022-08-19T07:50:03;99154.81;;;20.63;100.00
30554;BME280;17335;50.720;7.452;2022-08-19T07:52:33;99155.38;;;20.78;100.00
30554;BME280;17335;50.720;7.452;2022-08-19T07:55:00;99152.44;;;20.79;100.00
30554;BME280;17335;50.720;7.452;2022-08-19T07:57:30;99151.97;;;20.96;100.00
30554;BME280;17335;50.720;7.452;2022-08-19T07:59:56;99153.16;;;21.07;100.00
30554;BME280;17335;50.720;7.452;2022-08-19T08:02:23;99156.00;;;21.25;100.00
30554;BME280;17335;50.720;7.452;2022-08-19T08:04:50;99151.53;;;21.31;100.00
30554;BME280;17335;50.720;7.452;2022-08-19T08:07:35;99152.19;;;21.26;100.00
30554;BME280;17335;50.720;7.452;2022-08-19T08:10:20;99156.03;;;21.19;100.00
30554;BME280;17335;50.720;7.452;2022-08-19T08:12:50;99149.47;;;21.26;100.00
30554;BME280;17335;50.720;7.452;2022-08-19T08:15:37;99149.38;;;21.46;100.00
30554;BME280;17335;50.720;7.452;2022-08-19T08:18:09;99155.03;;;21.45;100.00
30554;BME280;17335;50.720;7.452;2022-08-19T08:20:36;99149.78;;;21.50;100.00
30554;BME280;17335;50.720;7.452;2022-08-19T08:23:02;99145.25;;;21.62;100.00
30554;BME280;17335;50.720;7.452;2022-08-19T08:25:48;99149.84;;;21.68;100.00
30554;BME280;17335;50.720;7.452;2022-08-19T08:28:16;99146.72;;;21.65;100.00
30554;BME280;17335;50.720;7.452;2022-08-19T08:30:43;99146.84;;;21.77;100.00
30554;BME280;17335;50.720;7.452;2022-08-19T08:33:12;99150.38;;;21.84;100.00
30554;BME280;17335;50.720;7.452;2022-08-19T08:35:40;99148.28;;;21.79;100.00
30554;BME280;17335;50.720;7.452;2022-08-19T08:38:12;99142.72;;;21.92;100.00
30554;BME280;17335;50.720;7.452;2022-08-19T08:40:44;99141.53;;;22.07;100.00
30554;BME280;17335;50.720;7.452;2022-08-19T08:43:22;99145.44;;;22.18;100.00
30554;BME280;17335;50.720;7.452;2022-08-19T08:46:12;99151.69;;;22.00;100.00
30554;BME280;17335;50.720;7.452;2022-08-19T08:49:26;99160.66;;;22.07;100.00
30554;BME280;17335;50.720;7.452;2022-08-19T08:52:02;99144.47;;;22.05;100.00
30554;BME280;17335;50.720;7.452;2022-08-19T08:54:32;99154.25;;;22.20;100.00
30554;BME280;17335;50.720;7.452;2022-08-19T08:57:03;99144.94;;;22.27;100.00
30554;BME280;17335;50.720;7.452;2022-08-19T08:59:35;99136.66;;;22.34;100.00
30554;BME280;17335;50.720;7.452;2022-08-19T09:02:04;99144.88;;;22.53;100.00
30554;BME280;17335;50.720;7.452;2022-08-19T09:04:31;99140.16;;;22.60;100.00
30554;BME280;17335;50.720;7.452;2022-08-19T09:10:13;99142.31;;;22.58;100.00
30554;BME280;17335;50.720;7.452;2022-08-19T09:15:28;99125.72;;;22.71;100.00
30554;BME280;17335;50.720;7.452;2022-08-19T09:18:03;99120.19;;;22.78;100.00
30554;BME280;17335;50.720;7.452;2022-08-19T09:20:32;99122.13;;;22.71;100.00
30554;BME280;17335;50.720;7.452;2022-08-19T09:22:59;99134.25;;;22.63;100.00
30554;BME280;17335;50.720;7.452;2022-08-19T09:25:26;99122.13;;;22.71;100.00
30554;BME280;17335;50.720;7.452;2022-08-19T09:27:55;99118.66;;;22.82;100.00
30554;BME280;17335;50.720;7.452;2022-08-19T09:30:39;99119.00;;;23.04;100.00
30554;BME280;17335;50.720;7.452;2022-08-19T09:33:07;99119.09;;;23.28;100.00
30554;BME280;17335;50.720;7.452;2022-08-19T09:35:34;99116.34;;;23.28;100.00
30554;BME280;17335;50.720;7.452;2022-08-19T09:38:20;99121.72;;;23.23;100.00
30554;BME280;17335;50.720;7.452;2022-08-19T09:40:47;99125.03;;;23.25;100.00
30554;BME280;17335;50.720;7.452;2022-08-19T09:43:13;99121.63;;;23.41;100.00
30554;BME280;17335;50.720;7.452;2022-08-19T09:45:59;99122.09;;;23.38;100.00
30554;BME280;17335;50.720;7.452;2022-08-19T09:48:26;99120.13;;;23.69;100.00
30554;BME280;17335;50.720;7.452;2022-08-19T09:50:53;99118.91;;;23.95;100.00
30554;BME280;17335;50.720;7.452;2022-08-19T09:53:20;99114.66;;;23.69;100.00
30554;BME280;17335;50.720;7.452;2022-08-19T09:55:50;99091.88;;;23.56;100.00
30554;BME280;17335;50.720;7.452;2022-08-19T09:58:17;99090.47;;;23.66;100.00
30554;BME280;17335;50.720;7.452;2022-08-19T10:00:49;99095.22;;;23.70;100.00
30554;BME280;17335;50.720;7.452;2022-08-19T10:03:17;99111.63;;;24.01;100.00
30554;BME280;17335;50.720;7.452;2022-08-19T10:05:43;99092.66;;;24.23;100.00
30554;BME280;17335;50.720;7.452;2022-08-19T10:08:28;99101.94;;;24.33;100.00
30554;BME280;17335;50.720;7.452;2022-08-19T10:10:57;99104.28;;;24.53;100.00
30554;BME280;17335;50.720;7.452;2022-08-19T10:13:26;99096.88;;;24.66;100.00
30554;BME280;17335;50.720;7.452;2022-08-19T10:15:54;99103.72;;;24.40;100.00
30554;BME280;17335;50.720;7.452;2022-08-19T10:18:24;99106.72;;;24.38;100.00
30554;BME280;17335;50.720;7.452;2022-08-19T10:20:51;99095.25;;;24.41;100.00
30554;BME280;17335;50.720;7.452;2022-08-19T10:23:20;99091.63;;;24.64;100.00
30554;BME280;17335;50.720;7.452;2022-08-19T10:25:48;99086.28;;;24.46;100.00
30554;BME280;17335;50.720;7.452;2022-08-19T10:28:15;99090.38;;;24.31;100.00
30554;BME280;17335;50.720;7.452;2022-08-19T10:34:31;99089.94;;;24.75;100.00
30554;BME280;17335;50.720;7.452;2022-08-19T10:36:59;99091.91;;;24.92;100.00
30554;BME280;17335;50.720;7.452;2022-08-19T10:39:29;99092.53;;;25.11;100.00
30554;BME280;17335;50.720;7.452;2022-08-19T10:41:58;99092.31;;;24.71;100.00
30554;BME280;17335;50.720;7.452;2022-08-19T10:44:25;99086.31;;;24.86;100.00
30554;BME280;17335;50.720;7.452;2022-08-19T10:46:58;99089.34;;;25.02;100.00
30554;BME280;17335;50.720;7.452;2022-08-19T10:49:25;99073.13;;;24.71;100.00
30554;BME280;17335;50.720;7.452;2022-08-19T10:51:54;99071.28;;;25.06;100.00
30554;BME280;17335;50.720;7.452;2022-08-19T10:54:45;99075.88;;;25.46;100.00
30554;BME280;17335;50.720;7.452;2022-08-19T10:57:34;99074.56;;;25.20;100.00
30554;BME280;17335;50.720;7.452;2022-08-19T11:00:22;99077.41;;;25.25;100.00
30554;BME280;17335;50.720;7.452;2022-08-19T11:02:50;99069.94;;;25.37;100.00
30554;BME280;17335;50.720;7.452;2022-08-19T11:05:17;99075.28;;;25.44;100.00
30554;BME280;17335;50.720;7.452;2022-08-19T11:07:44;99067.63;;;25.63;100.00
30554;BME280;17335;50.720;7.452;2022-08-19T11:10:13;99052.72;;;25.93;100.00
30554;BME280;17335;50.720;7.452;2022-08-19T11:12:46;99059.69;;;26.17;100.00
30554;BME280;17335;50.720;7.452;2022-08-19T11:15:14;99058.47;;;26.08;100.00
30554;BME280;17335;50.720;7.452;2022-08-19T11:17:41;99049.59;;;26.06;100.00
30554;BME280;17335;50.720;7.452;2022-08-19T11:20:14;99054.47;;;25.99;100.00
30554;BME280;17335;50.720;7.452;2022-08-19T11:22:41;99045.13;;;25.83;100.00
30554;BME280;17335;50.720;7.452;2022-08-19T11:25:09;99058.13;;;26.05;100.00
30554;BME280;17335;50.720;7.452;2022-08-19T11:27:40;99055.59;;;26.42;100.00
30554;BME280;17335;50.720;7.452;2022-08-19T11:30:10;99067.84;;;26.12;98.00
30554;BME280;17335;50.720;7.452;2022-08-19T11:32:39;99059.53;;;25.73;97.49
30554;BME280;17335;50.720;7.452;2022-08-19T11:35:11;99064.47;;;25.37;100.00
30554;BME280;17335;50.720;7.452;2022-08-19T11:37:37;99058.41;;;25.23;100.00
30554;BME280;17335;50.720;7.452;2022-08-19T11:40:05;99051.28;;;25.73;100.00
30554;BME280;17335;50.720;7.452;2022-08-19T11:42:32;99052.75;;;26.37;100.00
30554;BME280;17335;50.720;7.452;2022-08-19T11:45:18;99041.78;;;26.15;100.00
30554;BME280;17335;50.720;7.452;2022-08-19T11:47:44;99046.59;;;26.69;100.00
30554;BME280;17335;50.720;7.452;2022-08-19T11:50:12;99043.38;;;26.77;100.00
30554;BME280;17335;50.720;7.452;2022-08-19T11:52:39;99044.59;;;26.20;100.00
30554;BME280;17335;50.720;7.452;2022-08-19T11:55:06;99040.13;;;25.63;100.00
30554;BME280;17335;50.720;7.452;2022-08-19T11:57:33;99044.94;;;25.90;100.00
30554;BME280;17335;50.720;7.452;2022-08-19T12:00:00;99043.16;;;26.17;100.00
30554;BME280;17335;50.720;7.452;2022-08-19T12:02:27;99040.91;;;26.14;100.00
30554;BME280;17335;50.720;7.452;2022-08-19T12:04:54;99039.72;;;26.05;99.97
30554;BME280;17335;50.720;7.452;2022-08-19T12:07:20;99033.63;;;25.86;95.91
30554;BME280;17335;50.720;7.452;2022-08-19T12:09:47;99033.63;;;25.86;97.17
30554;BME280;17335;50.720;7.452;2022-08-19T12:12:14;99040.91;;;25.75;96.63
30554;BME280;17335;50.720;7.452;2022-08-19T12:14:41;99039.31;;;25.79;97.21
30554;BME280;17335;50.720;7.452;2022-08-19T12:17:07;99034.31;;;25.76;94.34
30554;BME280;17335;50.720;7.452;2022-08-19T12:19:36;99021.44;;;25.99;90.74
30554;BME280;17335;50.720;7.452;2022-08-19T12:22:03;99026.84;;;26.33;91.48
30554;BME280;17335;50.720;7.452;2022-08-19T12:24:32;99025.91;;;26.66;90.61
30554;BME280;17335;50.720;7.452;2022-08-19T12:27:00;99028.00;;;26.37;88.39
30554;BME280;17335;50.720;7.452;2022-08-19T12:29:28;99023.53;;;26.53;88.20
30554;BME280;17335;50.720;7.452;2022-08-19T12:31:57;99021.75;;;26.64;82.57
30554;BME280;17335;50.720;7.452;2022-08-19T12:34:29;99027.72;;;26.83;84.19
30554;BME280;17335;50.720;7.452;2022-08-19T12:36:57;99030.28;;;27.17;76.09
30554;BME280;17335;50.720;7.452;2022-08-19T12:39:25;99035.97;;;27.32;75.51
30554;BME280;17335;50.720;7.452;2022-08-19T12:41:53;99020.28;;;27.38;69.10
30554;BME280;17335;50.720;7.452;2022-08-19T12:44:21;99025.59;;;27.17;72.71
30554;BME280;17335;50.720;7.452;2022-08-19T12:46:54;99021.13;;;27.11;73.86
30554;BME280;17335;50.720;7.452;2022-08-19T12:49:20;99017.78;;;27.09;74.24
30554;BME280;17335;50.720;7.452;2022-08-19T12:52:08;99012.66;;;26.90;79.67
30554;BME280;17335;50.720;7.452;2022-08-19T12:54:36;99011.16;;;26.33;88.88
30554;BME280;17335;50.720;7.452;2022-08-19T12:57:07;99010.84;;;26.74;85.76
30554;BME280;17335;50.720;7.452;2022-08-19T12:59:35;99006.88;;;26.92;85.47
30554;BME280;17335;50.720;7.452;2022-08-19T13:02:07;99006.31;;;27.17;82.30
30554;BME280;17335;50.720;7.452;2022-08-19T13:04:34;98995.28;;;27.49;77.79
30554;BME280;17335;50.720;7.452;2022-08-19T13:07:07;98987.44;;;27.68;74.38
30554;BME280;17335;50.720;7.452;2022-08-19T13:09:35;98987.50;;;27.79;78.78
30554;BME280;17335;50.720;7.452;2022-08-19T13:12:03;98980.75;;;27.64;76.70
30554;BME280;17335;50.720;7.452;2022-08-19T13:14:34;98983.63;;;27.80;78.28
30554;BME280;17335;50.720;7.452;2022-08-19T13:17:02;98983.88;;;27.73;81.29
30554;BME280;17335;50.720;7.452;2022-08-19T13:19:28;98984.69;;;27.74;77.63